Onde está Santo Estevam, Santarem en Portugal?

 

Santo Estevam está situado na região Santarem em Portugal!

Buscar o nome de uma cidade:

Santa Ana, Santana do Paraopeba, Santo Espíritu, Santa Ana, Santa Maria Riopetra

Aqui você vai encontrar a localização de Santo Estevam em um mapa.
Para ver como ele atualmente parece, abaixo estão algumas fotos da região, com webcams online.
Você também pode encontrar a distância para as principais cidades da região e de cidades do resto do Portugal.

2 lugares nomeadas Santo Estevam na Portugal.

Cidades do mundo
Cidades em Portugal que também são encontradas em outros países do mundo.


Onde está Santo Estevam no mapa?




Webcams perto Santo Estevam

Benavente › North-East: Santarém - AIrport, METAR: BENAV 180005Z 36004KT 17/14 Q1015.


Benavente › North-East: Santarém - AIrport, METAR: BENAV 180005Z 36004KT 17/14 Q1015 - Dia
Actual
Benavente › North-East: Santarém - AIrport, METAR: BENAV 180005Z 36004KT 17/14 Q1015 - Actual

Parque das Nacoes › South: Rua Vasco da Gama.


Parque das Nacoes › South: Rua Vasco da Gama - Dia
Actual
Parque das Nacoes › South: Rua Vasco da Gama - Actual

Lisbon › North: Ponte Vasco da Gama.


Lisbon › North: Ponte Vasco da Gama - Dia
Actual
Lisbon › North: Ponte Vasco da Gama - Actual

Webcams provided by windy.comadd a webcam


Distâncias

Onde está Santo Estevam em relação a outros lugares?

Top 10 cidades em Santarem e distância de Santo Estevam.

Cidade#Populaçãokmmilhas
Santarém1293854226
Entroncamento2198877245
Tomar3191688754
Torres Novas4145267144
Samora Correia514154149
Abrantes6136468251
Ourém7127298955
Rio Maior8120645635
Fátima9117988553
Almeirim10115564025

Top 10 cidades em Portugal e distância de Santo Estevam.

Cidade # Populaçãokmmilhas
Lisbon15177983723
Porto2249630254158
Amadora31788564528
Braga4121393301187
Setúbal51171093924
Coimbra610658015395
Queluz71033984528
Funchal8980411011628
Vila Nova de Gaia970810253157
Loures10662303723


Info

Estatística e Geografia

Portugal é composta de 15299 cidades em 20 regiões.

A região de Santarem tem 1174 cidades.

Santo Estevam é o número 987 na região Santarem.

A cidade é o número 12359 na Portugal.

Onde está Santo Estevam, Santarem en Portugal?